Time;durP1;ratioP1;P1;durP2;ratioP2;P2;SDS_P1;SDS_P2;PMS_P1;PMS_P2;Temp;Humidity;BMP_temperature;BMP_pressure;BME280_temperature;BME280_humidity;BME280_pressure;Samples;Min_cycle;Max_cycle;Signal;HPM_P1;HPM_P2
2023/11/30 00:00:04;;;;;;;6.57;4.78;;;;;;;6.93;89.99;99599.53;5034220;28;20049;-63
2023/11/30 00:02:32;;;;;;;6.95;4.47;;;;;;;7.18;88.18;99614.72;5033355;28;20040;-62
2023/11/30 00:04:57;;;;;;;8.27;4.47;;;;;;;7.39;86.94;99625.06;5033173;28;20144;-63
2023/11/30 00:07:23;;;;;;;6.95;4.60;;;;;;;7.36;84.66;99639.34;5021996;28;20048;-63
2023/11/30 00:09:48;;;;;;;6.25;4.30;;;;;;;7.40;84.29;99645.16;5033127;28;20025;-65
2023/11/30 00:12:14;;;;;;;6.90;4.65;;;;;;;7.35;84.00;99647.41;5033285;28;20311;-62
2023/11/30 00:14:40;;;;;;;8.18;4.60;;;;;;;7.19;84.57;99655.88;5033244;28;20067;-62
2023/11/30 00:17:05;;;;;;;6.80;4.50;;;;;;;7.19;85.02;99658.50;5035031;28;20060;-66
2023/11/30 00:19:31;;;;;;;5.03;3.85;;;;;;;7.09;84.68;99662.97;5033534;28;20033;-67
2023/11/30 00:21:56;;;;;;;6.43;4.45;;;;;;;6.99;85.37;99659.53;5032878;28;20025;-65
2023/11/30 00:24:22;;;;;;;6.72;4.53;;;;;;;6.92;85.66;99675.03;5033458;28;20037;-62
2023/11/30 00:26:47;;;;;;;8.98;6.20;;;;;;;6.94;87.19;99674.91;5033500;28;20032;-63
2023/11/30 00:29:12;;;;;;;8.68;4.57;;;;;;;6.96;87.36;99675.59;5033158;28;20041;-63
2023/11/30 00:31:38;;;;;;;6.78;4.88;;;;;;;7.12;86.80;99672.38;5033060;28;20251;-63
2023/11/30 00:34:03;;;;;;;9.07;5.40;;;;;;;6.91;87.90;99678.66;5033738;28;20226;-65
2023/11/30 00:36:29;;;;;;;6.75;4.60;;;;;;;6.95;87.93;99689.72;5034180;28;20043;-62
2023/11/30 00:38:54;;;;;;;7.25;4.95;;;;;;;7.15;87.57;99694.00;5033958;28;20025;-66
2023/11/30 00:41:20;;;;;;;6.68;5.10;;;;;;;7.25;86.41;99696.59;5033974;28;20569;-65
2023/11/30 00:43:45;;;;;;;6.32;5.72;;;;;;;7.30;85.41;99713.69;5037686;28;20218;-63
2023/11/30 00:46:14;;;;;;;10.02;6.22;;;;;;;6.91;84.42;99717.31;5037544;28;20037;-63
2023/11/30 00:48:42;;;;;;;6.85;4.72;;;;;;;6.42;84.27;99721.72;5031653;28;20101;-63
2023/11/30 00:51:09;;;;;;;6.97;4.53;;;;;;;6.42;85.47;99731.41;5031306;28;20041;-66
2023/11/30 00:53:35;;;;;;;4.38;3.92;;;;;;;6.30;86.10;99731.50;5037124;28;20037;-64
2023/11/30 00:56:00;;;;;;;5.78;4.13;;;;;;;6.40;85.41;99737.63;5037725;28;20362;-62
2023/11/30 00:58:26;;;;;;;12.15;6.75;;;;;;;6.29;86.34;99736.91;5033937;28;20108;-64
2023/11/30 01:00:51;;;;;;;7.05;5.38;;;;;;;6.45;86.76;99731.13;5037364;28;20346;-67
2023/11/30 01:03:17;;;;;;;6.60;5.82;;;;;;;6.61;86.56;99734.88;5036992;28;20261;-63
2023/11/30 01:05:42;;;;;;;13.60;6.78;;;;;;;6.71;84.94;99740.16;5036468;28;20053;-67
2023/11/30 01:08:07;;;;;;;10.63;6.47;;;;;;;6.81;85.20;99733.09;5036697;28;20045;-67
2023/11/30 01:10:33;;;;;;;8.25;5.22;;;;;;;6.72;85.79;99736.56;5037177;28;20037;-67
2023/11/30 01:12:58;;;;;;;5.88;5.15;;;;;;;6.59;87.41;99736.81;5026584;28;20242;-67
2023/11/30 01:15:24;;;;;;;8.43;5.35;;;;;;;6.58;88.48;99735.16;5023815;28;20034;-64
2023/11/30 01:17:49;;;;;;;8.68;5.63;;;;;;;6.37;89.55;99742.31;5036012;28;20051;-63
2023/11/30 01:20:15;;;;;;;11.43;7.30;;;;;;;6.50;88.67;99747.31;5036300;28;20033;-62
2023/11/30 01:22:40;;;;;;;9.95;6.20;;;;;;;6.65;89.31;99751.22;5036206;28;20041;-62
2023/11/30 01:25:07;;;;;;;9.10;5.28;;;;;;;6.56;89.12;99747.63;5035705;28;20075;-62
2023/11/30 01:27:32;;;;;;;9.48;5.28;;;;;;;6.70;87.80;99746.38;5036303;28;20064;-64
2023/11/30 01:29:58;;;;;;;6.03;5.03;;;;;;;6.72;88.05;99752.34;5036206;28;20294;-63
2023/11/30 01:32:23;;;;;;;8.88;5.35;;;;;;;6.67;88.96;99754.56;5035421;28;20037;-64
2023/11/30 01:34:48;;;;;;;6.75;4.82;;;;;;;6.68;88.91;99750.94;5024640;28;20199;-64
2023/11/30 01:37:14;;;;;;;8.15;5.50;;;;;;;6.62;88.50;99754.97;5032361;28;20041;-61
2023/11/30 01:39:39;;;;;;;8.75;5.72;;;;;;;6.54;88.91;99753.97;5025366;28;20037;-62
2023/11/30 01:42:05;;;;;;;9.55;5.40;;;;;;;6.52;88.99;99759.38;5035908;28;20067;-62
2023/11/30 01:44:30;;;;;;;8.07;5.20;;;;;;;6.48;88.90;99760.63;5035095;28;20037;-65
2023/11/30 01:46:56;;;;;;;9.35;5.80;;;;;;;6.33;89.10;99757.53;5025544;28;20323;-67
2023/11/30 01:49:22;;;;;;;7.55;5.68;;;;;;;6.29;89.94;99758.78;5035491;28;20033;-67
2023/11/30 01:51:48;;;;;;;9.10;5.65;;;;;;;6.24;89.63;99762.75;5035547;28;20069;-67
2023/11/30 01:54:14;;;;;;;8.15;5.35;;;;;;;6.10;90.76;99771.81;5023862;28;20091;-65
2023/11/30 01:56:40;;;;;;;7.50;4.63;;;;;;;6.17;90.70;99770.34;5035466;28;20033;-65
2023/11/30 01:59:07;;;;;;;9.13;5.90;;;;;;;6.18;90.96;99774.63;5035737;28;20060;-63
2023/11/30 02:01:34;;;;;;;9.68;6.00;;;;;;;6.18;90.58;99774.63;5026959;28;20181;-67
2023/11/30 02:04:11;;;;;;;23.77;12.07;;;;;;;6.27;90.13;99767.75;5035460;28;20107;-67
2023/11/30 02:06:36;;;;;;;14.05;8.50;;;;;;;6.47;89.28;99772.09;5035903;28;20330;-62
2023/11/30 02:09:02;;;;;;;12.80;6.68;;;;;;;6.51;89.50;99791.91;5035541;28;20091;-65
2023/11/30 02:11:27;;;;;;;10.88;5.68;;;;;;;6.59;89.17;99792.06;5036213;28;20045;-64
2023/11/30 02:13:54;;;;;;;10.90;5.88;;;;;;;6.53;88.93;99789.97;5036026;28;20041;-67
2023/11/30 02:16:19;;;;;;;10.00;5.88;;;;;;;6.78;88.27;99798.34;5036269;28;20427;-64
2023/11/30 02:18:45;;;;;;;19.85;10.77;;;;;;;6.93;87.03;99797.78;5035370;28;20443;-62
2023/11/30 02:21:10;;;;;;;19.33;10.05;;;;;;;7.06;85.84;99805.41;5035539;28;20025;-64
2023/11/30 02:23:36;;;;;;;38.35;15.13;;;;;;;7.21;85.24;99811.09;5027693;28;20030;-64
2023/11/30 02:26:01;;;;;;;30.52;13.25;;;;;;;7.29;84.04;99820.00;5031865;28;20041;-63
2023/11/30 02:28:26;;;;;;;37.53;15.65;;;;;;;7.27;83.21;99818.44;5036058;28;20230;-63
2023/11/30 02:30:52;;;;;;;20.38;9.10;;;;;;;7.19;83.70;99815.69;5025942;28;20058;-65
2023/11/30 02:33:18;;;;;;;11.13;6.35;;;;;;;7.00;83.51;99796.28;5034401;28;20033;-62
2023/11/30 02:35:43;;;;;;;9.18;6.35;;;;;;;6.84;85.49;99818.84;5035353;28;20037;-62
2023/11/30 02:38:08;;;;;;;8.07;6.38;;;;;;;6.66;86.27;99823.94;5024966;28;20068;-64
2023/11/30 02:40:34;;;;;;;8.15;5.40;;;;;;;6.68;85.63;99822.84;5034924;28;20034;-67
2023/11/30 02:42:59;;;;;;;7.22;5.38;;;;;;;6.71;85.99;99821.72;5035401;28;20037;-64
2023/11/30 02:45:25;;;;;;;8.45;6.03;;;;;;;6.26;87.79;99832.66;5035410;28;20054;-64
2023/11/30 02:47:50;;;;;;;9.95;6.38;;;;;;;6.33;87.61;99828.53;5034568;28;20033;-67
2023/11/30 02:50:15;;;;;;;10.85;6.75;;;;;;;6.32;88.15;99826.88;5034799;28;20212;-65
2023/11/30 02:52:41;;;;;;;7.82;6.43;;;;;;;6.36;87.34;99830.06;5030754;28;20040;-67
2023/11/30 02:55:07;;;;;;;7.82;4.93;;;;;;;6.32;88.02;99833.94;5036399;28;20061;-64
2023/11/30 02:57:33;;;;;;;8.57;5.57;;;;;;;6.33;88.16;99828.53;5034206;28;20222;-67
2023/11/30 02:59:59;;;;;;;8.32;5.13;;;;;;;6.30;88.85;99831.44;5034852;28;20045;-64
2023/11/30 03:02:24;;;;;;;8.95;5.85;;;;;;;6.21;89.11;99826.13;5035417;28;20360;-67
2023/11/30 03:04:49;;;;;;;10.38;5.93;;;;;;;6.17;88.68;99824.72;5035512;28;20377;-67
2023/11/30 03:07:15;;;;;;;8.73;6.03;;;;;;;6.14;89.13;99838.94;5035566;28;20091;-67
2023/11/30 03:09:40;;;;;;;9.23;5.82;;;;;;;6.28;88.92;99841.25;5035534;28;20063;-66
2023/11/30 03:12:06;;;;;;;6.53;5.22;;;;;;;6.24;88.54;99849.50;5035990;28;20046;-65
2023/11/30 03:14:32;;;;;;;7.45;4.45;;;;;;;6.28;88.04;99854.41;5035107;28;20045;-67
2023/11/30 03:16:57;;;;;;;7.15;5.03;;;;;;;6.35;87.45;99860.81;5034590;28;20323;-67
2023/11/30 03:19:23;;;;;;;7.43;5.30;;;;;;;6.35;87.53;99854.72;5034174;28;20037;-64
2023/11/30 03:21:52;;;;;;;7.53;5.68;;;;;;;6.36;86.10;99870.34;5034840;28;20064;-64
2023/11/30 03:24:18;;;;;;;6.88;4.38;;;;;;;6.27;86.42;99875.56;5034029;28;20365;-65
2023/11/30 03:26:44;;;;;;;7.13;4.63;;;;;;;6.16;86.83;99878.25;5034435;28;20033;-66
2023/11/30 03:29:09;;;;;;;9.43;5.35;;;;;;;6.02;86.95;99872.38;5034616;28;20029;-64
2023/11/30 03:31:35;;;;;;;6.53;5.00;;;;;;;5.89;87.84;99873.50;5034011;28;20052;-65
2023/11/30 03:34:00;;;;;;;7.35;5.68;;;;;;;5.75;88.07;99878.13;5034290;28;20065;-64
2023/11/30 03:36:26;;;;;;;9.50;5.25;;;;;;;5.66;89.36;99881.53;5034162;28;20381;-67
2023/11/30 03:38:53;;;;;;;8.45;5.15;;;;;;;5.68;89.72;99873.50;5033954;28;20333;-66
2023/11/30 03:41:20;;;;;;;9.80;5.45;;;;;;;5.75;89.82;99878.13;5034905;28;20056;-67
2023/11/30 03:43:46;;;;;;;7.93;5.28;;;;;;;5.83;89.22;99885.38;5034289;28;20242;-67
2023/11/30 03:46:12;;;;;;;8.88;5.65;;;;;;;5.89;88.60;99887.50;5034173;28;20076;-64
2023/11/30 03:48:37;;;;;;;8.27;5.38;;;;;;;5.76;89.23;99886.84;5020951;28;20034;-67
2023/11/30 03:51:03;;;;;;;12.77;7.45;;;;;;;5.70;88.86;99890.81;5034395;28;20288;-65
2023/11/30 03:53:28;;;;;;;16.67;10.30;;;;;;;5.72;90.07;99883.63;5034192;28;20230;-64
2023/11/30 03:55:55;;;;;;;16.40;8.75;;;;;;;5.81;89.59;99889.09;5034148;28;20116;-67
2023/11/30 03:58:20;;;;;;;15.75;9.50;;;;;;;5.90;89.17;99891.81;5035380;28;20039;-65
2023/11/30 04:00:46;;;;;;;15.82;8.13;;;;;;;6.00;89.14;99899.75;5034569;28;20339;-65
2023/11/30 04:03:11;;;;;;;20.95;10.05;;;;;;;6.11;89.22;99898.84;5034038;28;20056;-64
2023/11/30 04:05:36;;;;;;;17.08;8.27;;;;;;;6.20;88.59;99900.69;5034165;28;20741;-67
2023/11/30 04:08:02;;;;;;;12.57;7.30;;;;;;;6.08;88.34;99907.81;5033211;28;20038;-65
2023/11/30 04:10:27;;;;;;;11.98;7.00;;;;;;;6.10;89.76;99900.66;5024287;28;20030;-62
2023/11/30 04:12:53;;;;;;;8.50;5.75;;;;;;;6.11;89.16;99910.19;5033965;28;20222;-65
2023/11/30 04:15:18;;;;;;;9.18;6.43;;;;;;;6.10;89.38;99929.56;5034693;28;20037;-64
2023/11/30 04:17:44;;;;;;;12.05;6.93;;;;;;;6.10;89.26;99919.03;5033931;28;20041;-67
2023/11/30 04:20:10;;;;;;;12.38;7.47;;;;;;;6.28;88.84;99930.66;5033848;28;20053;-64
2023/11/30 04:22:35;;;;;;;16.00;8.02;;;;;;;6.38;88.14;99930.72;5032617;28;20037;-67
2023/11/30 04:25:01;;;;;;;8.23;6.28;;;;;;;6.33;87.54;99925.84;5033059;28;20283;-64
2023/11/30 04:27:26;;;;;;;28.95;14.15;;;;;;;6.37;87.32;99931.69;5033431;28;20030;-67
2023/11/30 04:29:52;;;;;;;19.40;12.57;;;;;;;6.47;86.41;99937.00;5033260;28;20044;-66
2023/11/30 04:32:17;;;;;;;34.85;19.08;;;;;;;6.51;86.03;99936.59;5033017;28;20415;-67
2023/11/30 04:34:42;;;;;;;30.98;16.08;;;;;;;6.45;85.61;99934.50;5033211;28;20075;-68
2023/11/30 04:37:08;;;;;;;17.60;11.15;;;;;;;6.52;85.85;99942.69;5032870;28;20217;-67
2023/11/30 04:39:33;;;;;;;17.05;11.32;;;;;;;6.57;84.72;99951.84;5033112;28;20025;-67
2023/11/30 04:41:59;;;;;;;22.60;13.02;;;;;;;6.63;84.79;99956.59;5029939;28;20041;-64
2023/11/30 04:44:28;;;;;;;15.75;9.73;;;;;;;6.68;84.36;99964.09;5024085;28;20365;-67
2023/11/30 04:46:53;;;;;;;15.98;11.15;;;;;;;6.62;84.08;99960.19;5032899;28;20211;-65
2023/11/30 04:49:19;;;;;;;17.85;12.07;;;;;;;6.63;83.79;99969.75;5033472;28;20037;-64
2023/11/30 04:51:45;;;;;;;15.10;10.52;;;;;;;6.60;83.83;99970.00;5032625;28;20063;-64
2023/11/30 04:54:11;;;;;;;18.52;14.07;;;;;;;6.36;84.25;99972.09;5033345;28;20151;-64
2023/11/30 04:56:36;;;;;;;13.13;10.88;;;;;;;6.34;84.63;99980.13;5032341;28;20044;-67
2023/11/30 04:59:02;;;;;;;12.13;9.50;;;;;;;6.39;84.58;99980.56;5034253;28;20038;-67
2023/11/30 05:01:29;;;;;;;15.13;9.40;;;;;;;6.31;84.60;99985.63;5034441;28;20045;-67
2023/11/30 05:03:56;;;;;;;15.23;9.88;;;;;;;6.34;84.46;99993.25;5028152;28;20026;-67
2023/11/30 05:06:22;;;;;;;13.13;9.80;;;;;;;6.36;84.05;99995.78;5028181;28;20042;-65
2023/11/30 05:08:47;;;;;;;17.20;11.27;;;;;;;6.38;83.89;99996.47;5032746;28;20075;-65
2023/11/30 05:11:13;;;;;;;30.13;15.23;;;;;;;6.44;83.72;100003.84;5034087;28;20056;-67
2023/11/30 05:13:38;;;;;;;12.88;9.48;;;;;;;6.52;83.45;100001.41;5033860;28;20405;-64
2023/11/30 05:16:04;;;;;;;12.85;9.27;;;;;;;6.57;82.43;100011.53;5033147;28;20029;-62
2023/11/30 05:18:30;;;;;;;13.82;8.55;;;;;;;6.56;81.93;100007.25;5033124;28;20470;-64
2023/11/30 05:20:56;;;;;;;11.23;7.35;;;;;;;6.56;82.45;100013.34;5032699;28;20025;-65
2023/11/30 05:23:22;;;;;;;17.88;8.80;;;;;;;6.54;82.29;100022.31;5033489;28;20029;-65
2023/11/30 05:25:47;;;;;;;10.30;8.43;;;;;;;6.56;82.65;100025.66;5034083;28;20045;-67
2023/11/30 05:28:13;;;;;;;10.40;7.95;;;;;;;6.53;83.08;100029.38;5035387;28;20041;-67
2023/11/30 05:30:38;;;;;;;12.13;9.18;;;;;;;6.53;81.67;100031.19;5036922;28;20043;-67
2023/11/30 05:33:04;;;;;;;14.93;8.25;;;;;;;6.39;82.60;100027.06;5036568;28;20331;-64
2023/11/30 05:35:29;;;;;;;10.93;7.32;;;;;;;6.14;82.36;100022.16;5036646;28;20041;-65
2023/11/30 05:37:55;;;;;;;13.90;10.38;;;;;;;5.92;83.83;100015.22;5036691;28;20067;-67
2023/11/30 05:40:20;;;;;;;42.33;25.48;;;;;;;5.92;84.89;100028.34;5036322;28;20365;-67
2023/11/30 05:42:46;;;;;;;50.75;27.25;;;;;;;6.04;85.42;100030.81;5036086;28;20041;-67
2023/11/30 05:45:11;;;;;;;41.97;27.25;;;;;;;6.03;84.38;100044.91;5036383;28;20052;-64
2023/11/30 05:47:37;;;;;;;23.92;14.77;;;;;;;5.99;84.98;100037.41;5035818;28;20033;-64
2023/11/30 05:50:04;;;;;;;29.10;17.48;;;;;;;5.98;84.92;100036.56;5036371;28;20330;-66
2023/11/30 05:52:30;;;;;;;25.98;14.50;;;;;;;6.05;85.50;100035.09;5034673;28;20404;-67
2023/11/30 05:54:57;;;;;;;26.52;16.35;;;;;;;6.12;84.92;100032.81;5024206;28;20321;-64
2023/11/30 05:57:23;;;;;;;26.05;16.35;;;;;;;6.23;84.27;100035.38;5036157;28;20037;-67
2023/11/30 05:59:48;;;;;;;19.85;13.00;;;;;;;6.02;83.96;100035.34;5035748;28;20044;-64
2023/11/30 06:02:15;;;;;;;19.20;10.48;;;;;;;5.95;84.64;100031.56;5035647;28;20282;-64
2023/11/30 06:04:52;;;;;;;14.80;9.90;;;;;;;5.91;85.63;100027.50;5036210;28;20514;-65
2023/11/30 06:07:18;;;;;;;13.98;8.00;;;;;;;6.05;85.34;100036.91;5032462;28;20033;-65
2023/11/30 06:09:44;;;;;;;13.98;9.35;;;;;;;6.13;84.14;100025.75;5036485;28;20155;-65
2023/11/30 06:12:09;;;;;;;17.85;8.40;;;;;;;6.23;83.05;100031.91;5034864;28;20041;-67
2023/11/30 06:14:35;;;;;;;14.25;8.95;;;;;;;5.94;85.10;100036.94;5021075;28;20045;-64
2023/11/30 06:17:01;;;;;;;18.85;12.10;;;;;;;5.66;87.45;100035.69;5024290;28;20033;-64
2023/11/30 06:19:26;;;;;;;27.83;14.88;;;;;;;5.58;89.17;100030.22;5018384;28;20247;-66
2023/11/30 06:21:51;;;;;;;30.17;18.13;;;;;;;5.86;88.28;100027.03;5023534;28;20218;-67
2023/11/30 06:24:17;;;;;;;33.10;18.77;;;;;;;6.06;87.81;100031.50;5036627;28;20045;-64
2023/11/30 06:26:43;;;;;;;32.60;19.58;;;;;;;6.18;87.67;100029.66;5025055;28;20235;-67
2023/11/30 06:29:11;;;;;;;32.22;21.60;;;;;;;6.20;87.27;100040.06;5017580;28;20033;-64
2023/11/30 06:31:37;;;;;;;25.25;16.48;;;;;;;6.06;87.85;100028.03;5024300;28;20371;-65
2023/11/30 06:34:03;;;;;;;33.58;19.45;;;;;;;5.85;90.03;100024.53;5022326;28;20048;-64
2023/11/30 06:36:28;;;;;;;22.73;13.05;;;;;;;5.72;90.92;100061.47;5021298;28;20053;-67
2023/11/30 06:38:54;;;;;;;18.67;11.05;;;;;;;5.58;90.97;100065.19;5023974;28;20038;-64
2023/11/30 06:41:19;;;;;;;19.33;11.75;;;;;;;5.59;92.61;100060.78;5036325;28;20043;-67
2023/11/30 06:43:45;;;;;;;21.23;12.48;;;;;;;5.79;92.35;100062.63;5024754;28;20040;-67
2023/11/30 06:46:19;;;;;;;25.88;17.33;;;;;;;5.71;91.13;100067.69;5023917;28;20099;-67
2023/11/30 06:48:45;;;;;;;35.47;23.52;;;;;;;5.62;92.00;100065.78;5018687;28;20061;-66
2023/11/30 06:51:11;;;;;;;34.25;19.77;;;;;;;5.60;92.33;100078.22;5021008;28;20065;-66
2023/11/30 06:53:36;;;;;;;20.85;14.65;;;;;;;5.70;92.25;100077.34;5020780;28;20105;-64
2023/11/30 06:56:01;;;;;;;19.02;11.10;;;;;;;5.59;91.98;100084.41;5024466;28;20053;-66
2023/11/30 06:58:28;;;;;;;19.15;11.32;;;;;;;5.48;91.72;100089.69;5018320;28;20363;-65
2023/11/30 07:00:53;;;;;;;11.75;7.43;;;;;;;5.38;93.31;100094.84;5023833;28;20346;-64
2023/11/30 07:03:18;;;;;;;11.18;7.35;;;;;;;5.39;94.02;100088.63;5018362;28;20037;-64
2023/11/30 07:05:44;;;;;;;14.18;8.20;;;;;;;5.53;93.78;100095.41;5023386;28;20270;-64
2023/11/30 07:08:09;;;;;;;11.88;7.38;;;;;;;5.74;93.90;100110.31;5018699;28;20427;-64
2023/11/30 07:10:35;;;;;;;11.32;7.32;;;;;;;5.96;93.19;100108.63;5023453;28;20038;-64
2023/11/30 07:13:00;;;;;;;9.20;6.80;;;;;;;6.12;92.05;100106.41;5017574;28;20025;-67
2023/11/30 07:15:25;;;;;;;12.45;7.70;;;;;;;6.42;91.48;100107.53;5023264;28;20042;-67
2023/11/30 07:17:51;;;;;;;10.38;6.63;;;;;;;6.62;90.16;100114.59;5023354;28;20037;-65
2023/11/30 07:20:16;;;;;;;10.52;7.18;;;;;;;6.76;89.23;100123.97;5017523;28;20038;-66
2023/11/30 07:22:43;;;;;;;11.85;7.93;;;;;;;6.92;88.14;100145.41;5022591;28;20041;-64
2023/11/30 07:25:08;;;;;;;18.92;9.18;;;;;;;6.83;87.19;100159.34;5018044;28;20084;-65
2023/11/30 07:27:33;;;;;;;24.88;12.63;;;;;;;6.94;87.65;100165.38;5023594;28;20319;-65
2023/11/30 07:29:59;;;;;;;26.63;13.68;;;;;;;7.19;87.15;100150.13;5016644;28;20056;-62
2023/11/30 07:32:24;;;;;;;19.60;12.70;;;;;;;7.39;86.31;100141.41;5023374;28;20354;-64
2023/11/30 07:34:50;;;;;;;13.63;10.05;;;;;;;7.43;85.68;100123.53;5017296;28;20036;-62
2023/11/30 07:37:19;;;;;;;23.05;13.55;;;;;;;7.52;84.65;100117.47;4999933;28;20049;-64
2023/11/30 07:39:44;;;;;;;16.73;10.85;;;;;;;7.74;84.91;100134.88;5036109;28;20235;-62
2023/11/30 07:42:10;;;;;;;12.80;8.73;;;;;;;7.93;83.95;100142.81;5037743;28;20026;-62
2023/11/30 07:44:35;;;;;;;19.15;10.82;;;;;;;8.16;81.90;100141.63;5021121;28;20034;-65
2023/11/30 07:47:01;;;;;;;19.30;10.77;;;;;;;8.22;80.92;100146.34;5016785;28;20033;-62
2023/11/30 07:49:26;;;;;;;17.25;10.48;;;;;;;8.37;80.49;100146.84;5017484;28;20112;-64
2023/11/30 07:51:52;;;;;;;19.35;10.98;;;;;;;8.50;80.04;100142.13;5016374;28;20049;-62
2023/11/30 07:54:17;;;;;;;15.07;9.25;;;;;;;8.60;79.76;100140.31;5017475;28;20049;-62
2023/11/30 07:56:43;;;;;;;16.13;9.15;;;;;;;8.75;79.40;100143.34;5017846;28;20040;-62
2023/11/30 07:59:12;;;;;;;16.77;9.73;;;;;;;8.91;79.16;100140.97;5017582;28;20021;-62
2023/11/30 08:01:37;;;;;;;13.32;8.70;;;;;;;9.06;79.21;100157.19;5023276;28;20103;-64
2023/11/30 08:04:03;;;;;;;11.30;7.95;;;;;;;9.10;78.69;100155.09;5033338;28;20031;-64
2023/11/30 08:06:29;;;;;;;14.60;8.15;;;;;;;9.19;77.81;100167.47;5037736;28;20077;-62
2023/11/30 08:08:54;;;;;;;11.60;8.07;;;;;;;9.23;77.50;100166.19;5037906;28;20052;-65
2023/11/30 08:11:20;;;;;;;11.52;8.45;;;;;;;9.28;77.80;100164.78;5038379;28;20050;-66
2023/11/30 08:13:45;;;;;;;11.52;8.43;;;;;;;9.32;78.67;100159.22;5037440;28;20033;-63
2023/11/30 08:16:10;;;;;;;11.82;8.40;;;;;;;9.37;77.45;100160.50;5037264;28;20309;-65
2023/11/30 08:18:36;;;;;;;11.27;8.00;;;;;;;9.43;78.02;100164.38;5036908;28;20041;-62
2023/11/30 08:21:02;;;;;;;10.73;8.15;;;;;;;9.46;77.99;100156.97;5036500;28;20038;-63
2023/11/30 08:23:28;;;;;;;15.15;8.52;;;;;;;9.61;78.33;100149.41;5036813;28;20086;-63
2023/11/30 08:25:54;;;;;;;15.40;9.93;;;;;;;9.57;77.17;100154.16;5037447;28;20049;-65
2023/11/30 08:28:20;;;;;;;12.95;9.40;;;;;;;9.62;78.13;100151.06;5036527;28;20105;-63
2023/11/30 08:30:45;;;;;;;15.00;9.23;;;;;;;9.51;79.54;100141.50;5036382;28;20053;-65
2023/11/30 08:33:11;;;;;;;14.80;9.70;;;;;;;9.67;80.25;100145.34;5037248;28;20030;-65
2023/11/30 08:35:37;;;;;;;12.98;9.43;;;;;;;9.54;80.01;100146.50;5037308;28;20350;-65
2023/11/30 08:38:03;;;;;;;14.93;10.45;;;;;;;9.34;79.72;100136.97;5036657;28;20041;-63
2023/11/30 08:40:29;;;;;;;13.68;9.70;;;;;;;9.21;81.69;100126.72;5036288;28;20140;-65
2023/11/30 08:42:54;;;;;;;15.50;9.40;;;;;;;8.52;83.14;100126.16;5036923;28;20049;-65
2023/11/30 08:45:19;;;;;;;12.85;8.25;;;;;;;8.78;83.62;100127.22;5036293;28;20238;-65
2023/11/30 08:47:45;;;;;;;14.35;8.85;;;;;;;8.69;83.30;100121.97;5036620;28;20028;-62
2023/11/30 08:50:10;;;;;;;10.57;7.43;;;;;;;8.90;83.08;100123.47;5036588;28;20046;-63
2023/11/30 08:52:37;;;;;;;12.30;8.05;;;;;;;8.91;83.12;100117.19;5036399;28;20043;-65
2023/11/30 08:55:02;;;;;;;12.07;8.23;;;;;;;8.81;83.34;100124.31;5036589;28;20090;-65
2023/11/30 08:57:28;;;;;;;14.07;8.60;;;;;;;8.44;86.15;100126.84;5037946;28;20033;-65
2023/11/30 08:59:55;;;;;;;14.45;8.38;;;;;;;8.31;87.47;100121.78;5037263;28;20414;-65
2023/11/30 09:02:21;;;;;;;13.70;8.43;;;;;;;8.46;86.50;100118.78;5038144;28;20041;-65
2023/11/30 09:04:46;;;;;;;11.40;7.82;;;;;;;8.32;87.09;100117.31;5041698;28;20029;-65
2023/11/30 09:07:12;;;;;;;12.25;7.93;;;;;;;8.25;87.16;100122.31;5041013;28;20052;-63
2023/11/30 09:09:37;;;;;;;14.65;8.80;;;;;;;8.43;87.95;100113.78;5041089;28;20033;-63
2023/11/30 09:12:03;;;;;;;12.77;8.23;;;;;;;8.25;88.70;100116.22;5041043;28;20037;-63
2023/11/30 09:14:32;;;;;;;13.63;8.50;;;;;;;8.17;89.41;100093.16;5041232;28;20041;-65
2023/11/30 09:16:59;;;;;;;12.75;8.32;;;;;;;8.11;90.68;100083.16;5040742;28;20040;-63
2023/11/30 09:19:25;;;;;;;11.48;8.43;;;;;;;8.41;88.51;100086.69;5040571;28;20071;-63
2023/11/30 09:21:50;;;;;;;14.10;9.23;;;;;;;8.48;89.85;100087.81;5040571;28;20034;-63
2023/11/30 09:24:20;;;;;;;14.02;8.77;;;;;;;8.58;88.77;100088.63;5040653;28;20044;-63
2023/11/30 09:26:45;;;;;;;11.95;7.50;;;;;;;8.77;87.39;100070.13;5040745;28;20033;-65
2023/11/30 09:29:11;;;;;;;11.80;8.43;;;;;;;8.73;89.39;100063.47;5039977;28;20086;-65
2023/11/30 09:31:41;;;;;;;11.63;7.82;;;;;;;8.35;90.77;100059.06;5040972;28;20033;-63
2023/11/30 09:34:06;;;;;;;15.18;9.23;;;;;;;8.48;90.83;100061.41;5040496;28;20036;-65
2023/11/30 09:36:31;;;;;;;15.15;8.90;;;;;;;8.35;91.84;100052.97;5039600;28;20038;-63
2023/11/30 09:38:57;;;;;;;12.70;9.43;;;;;;;8.45;92.13;100059.06;5039736;28;20076;-65
2023/11/30 09:41:23;;;;;;;12.65;8.95;;;;;;;8.06;94.39;100053.72;5040910;28;20041;-65
2023/11/30 09:43:48;;;;;;;13.38;9.00;;;;;;;7.95;95.01;100052.06;5040863;28;20092;-65
2023/11/30 09:46:14;;;;;;;13.82;9.23;;;;;;;8.07;94.34;100051.94;5040480;28;20045;-65
2023/11/30 09:48:39;;;;;;;16.00;9.75;;;;;;;8.11;93.30;100043.59;5040390;28;20064;-65
2023/11/30 09:51:06;;;;;;;15.32;9.43;;;;;;;8.26;92.01;100049.28;5040115;28;20049;-65
2023/11/30 09:53:31;;;;;;;12.98;8.57;;;;;;;8.30;92.95;100035.69;5039703;28;20052;-62
2023/11/30 09:55:57;;;;;;;13.50;9.55;;;;;;;8.13;92.70;100028.47;5040603;28;20061;-63
2023/11/30 09:58:22;;;;;;;16.83;9.95;;;;;;;8.19;94.55;100021.81;5040504;28;20037;-64
2023/11/30 10:00:47;;;;;;;11.32;7.70;;;;;;;8.20;92.70;100024.31;5040316;28;20266;-65
2023/11/30 10:03:13;;;;;;;13.93;8.88;;;;;;;8.23;91.86;100024.03;5040446;28;20041;-62
2023/11/30 10:05:41;;;;;;;14.43;8.93;;;;;;;8.39;92.93;100036.72;5040739;28;20075;-64
2023/11/30 10:08:07;;;;;;;11.40;7.78;;;;;;;8.41;91.76;100018.09;5039061;28;20040;-62
2023/11/30 10:10:33;;;;;;;9.73;6.70;;;;;;;8.68;90.21;100025.25;5039524;28;20041;-63
2023/11/30 10:12:58;;;;;;;11.38;7.25;;;;;;;8.53;92.65;100033.63;5038505;28;20362;-65
2023/11/30 10:15:25;;;;;;;10.98;7.22;;;;;;;8.65;90.08;100036.94;5037429;28;20123;-65
2023/11/30 10:17:51;;;;;;;10.15;7.18;;;;;;;8.76;88.97;100030.66;5039521;28;20037;-65
2023/11/30 10:20:18;;;;;;;11.32;6.15;;;;;;;8.92;87.27;100047.56;5039469;28;20025;-63
2023/11/30 10:22:43;;;;;;;10.68;7.13;;;;;;;8.73;88.64;100046.78;5039279;28;20321;-65
2023/11/30 10:25:10;;;;;;;10.88;7.65;;;;;;;8.82;88.53;100054.69;5038548;28;20037;-65
2023/11/30 10:27:36;;;;;;;10.00;6.53;;;;;;;8.68;88.33;100052.50;5038365;28;20041;-65
2023/11/30 10:30:04;;;;;;;12.48;7.03;;;;;;;8.45;89.20;100051.16;5037773;28;20412;-63
2023/11/30 10:32:35;;;;;;;11.60;7.30;;;;;;;8.63;89.58;100036.25;5037496;28;20280;-65
2023/11/30 10:35:05;;;;;;;12.82;7.35;;;;;;;8.63;88.30;100047.63;5037623;28;20101;-63
2023/11/30 10:37:37;;;;;;;11.02;6.72;;;;;;;8.88;87.28;100037.44;5037530;28;20037;-65
2023/11/30 10:40:10;;;;;;;9.18;6.68;;;;;;;8.86;88.21;100040.22;5037523;28;20073;-63
2023/11/30 10:42:36;;;;;;;10.90;7.13;;;;;;;8.88;90.50;100037.44;5037246;28;20045;-65
2023/11/30 10:45:06;;;;;;;12.27;7.40;;;;;;;8.95;88.87;100027.94;5038116;28;20255;-65
2023/11/30 10:47:34;;;;;;;10.00;6.60;;;;;;;8.95;87.96;100026.16;5037373;28;20033;-63
2023/11/30 10:50:01;;;;;;;11.25;6.80;;;;;;;8.85;87.52;100024.50;5037650;28;20045;-65
2023/11/30 10:52:31;;;;;;;8.30;6.18;;;;;;;8.99;86.79;100016.13;5039021;28;20318;-63
2023/11/30 10:55:19;;;;;;;10.65;6.88;;;;;;;8.95;85.79;100020.84;5039643;28;20049;-65
2023/11/30 10:57:46;;;;;;;10.25;7.22;;;;;;;9.01;85.31;100013.34;5029439;28;20037;-65
2023/11/30 11:00:16;;;;;;;10.57;7.25;;;;;;;9.14;85.12;100019.13;5039012;28;20120;-63
2023/11/30 11:02:44;;;;;;;10.23;6.60;;;;;;;9.11;85.33;100016.75;5038721;28;20057;-65
2023/11/30 11:05:14;;;;;;;9.50;6.72;;;;;;;9.17;85.76;100019.66;5039516;28;20416;-65
2023/11/30 11:07:47;;;;;;;10.38;7.03;;;;;;;9.32;86.02;100014.72;5039227;28;20039;-63
2023/11/30 11:10:27;;;;;;;10.43;7.00;;;;;;;9.33;86.06;100007.63;5038871;28;20055;-65
2023/11/30 11:12:57;;;;;;;9.32;6.38;;;;;;;9.20;88.07;100002.69;5038409;28;20482;-63
2023/11/30 11:15:23;;;;;;;8.88;6.45;;;;;;;9.24;87.32;100004.88;5038732;28;20033;-63
2023/11/30 11:17:50;;;;;;;11.88;7.72;;;;;;;9.41;84.64;99997.16;5038462;28;20064;-64
2023/11/30 11:20:32;;;;;;;11.13;7.10;;;;;;;9.19;85.55;99990.44;5038977;28;20067;-65
2023/11/30 11:23:03;;;;;;;10.40;6.60;;;;;;;9.18;89.88;99980.84;5037927;28;20041;-63